Time;durP1;ratioP1;P1;durP2;ratioP2;P2;SDS_P1;SDS_P2;PMS_P1;PMS_P2;Temp;Humidity;BMP_temperature;BMP_pressure;BME280_temperature;BME280_humidity;BME280_pressure;Samples;Min_cycle;Max_cycle;Signal;HPM_P1;HPM_P2
2023/08/29 00:00:42;;;;;;;6.47;1.30;;;13.50;99.90;;;12.44;96.40;100722.28;4970128;28;20555;-77
2023/08/29 00:03:08;;;;;;;3.83;1.00;;;13.50;99.90;;;12.42;96.14;100717.13;4963546;28;20500;-77
2023/08/29 00:05:33;;;;;;;1.60;1.13;;;13.40;99.90;;;12.41;96.15;100717.19;4962684;28;20035;-77
2023/08/29 00:07:59;;;;;;;6.88;1.10;;;13.40;99.90;;;12.39;95.73;100717.28;4964257;28;20102;-77
2023/08/29 00:10:25;;;;;;;246.00;4.68;;;13.40;99.90;;;12.29;94.61;100711.66;4963297;28;20571;-77
2023/08/29 00:12:52;;;;;;;19.35;1.00;;;13.30;99.90;;;12.15;92.90;100690.41;4950507;28;20393;-77
2023/08/29 00:15:18;;;;;;;0.95;0.80;;;13.20;99.90;;;12.05;92.40;100689.19;4951646;28;20027;-77
2023/08/29 00:17:44;;;;;;;3.75;1.20;;;13.10;99.90;;;11.96;92.24;100694.97;4965739;28;20664;-77
2023/08/29 00:20:10;;;;;;;5.15;1.27;;;13.00;99.90;;;11.89;92.30;100697.06;4986039;28;20045;-77
2023/08/29 00:22:36;;;;;;;5.00;1.02;;;13.00;99.90;;;11.83;92.35;100686.81;4963184;28;20730;-77
2023/08/29 00:25:02;;;;;;;2.10;1.20;;;12.90;99.90;;;11.78;92.01;100678.28;4961971;28;20089;-77
2023/08/29 00:27:28;;;;;;;2.63;1.33;;;12.80;99.90;;;11.75;92.88;100667.88;4962727;28;20038;-77
2023/08/29 00:29:54;;;;;;;6.65;1.60;;;12.80;99.90;;;11.69;93.10;100662.00;4965138;28;20034;-77
2023/08/29 00:32:19;;;;;;;3.80;1.10;;;12.80;99.90;;;11.62;93.46;100657.13;4958896;28;20049;-77
2023/08/29 00:34:45;;;;;;;2.67;1.40;;;12.70;99.90;;;11.56;93.37;100642.50;4963068;28;20030;-77
2023/08/29 00:37:11;;;;;;;2.67;1.30;;;12.70;99.90;;;11.52;93.58;100645.38;4952458;28;20504;-77
2023/08/29 00:39:37;;;;;;;2.47;1.60;;;12.60;99.90;;;11.50;93.51;100637.53;4962139;28;20040;-77
2023/08/29 00:42:03;;;;;;;2.05;1.30;;;12.60;99.90;;;11.46;93.80;100628.06;4964671;28;20745;-77
2023/08/29 00:44:28;;;;;;;3.92;2.30;;;12.50;99.90;;;11.44;94.51;100624.66;4969497;28;20041;-77
2023/08/29 00:46:54;;;;;;;8.23;4.00;;;12.50;99.90;;;11.41;95.20;100619.56;4952837;28;20121;-77
2023/08/29 00:49:25;;;;;;;3.63;2.45;;;12.50;99.90;;;11.38;96.12;100628.47;4963087;28;20027;-77
2023/08/29 00:51:51;;;;;;;7.15;3.03;;;12.50;99.90;;;11.36;96.51;100634.75;4963692;28;20089;-77
2023/08/29 00:54:19;;;;;;;4.72;3.42;;;12.40;99.90;;;11.33;97.45;100633.13;4957963;28;20085;-77
2023/08/29 00:56:47;;;;;;;6.93;3.70;;;12.40;99.90;;;11.29;100.00;100645.63;4967391;28;20034;-77
2023/08/29 00:59:13;;;;;;;6.47;4.78;;;12.40;99.90;;;11.26;100.00;100635.22;4953438;28;20109;-76
2023/08/29 01:01:39;;;;;;;12.80;4.72;;;12.40;99.90;;;11.23;100.00;100637.16;4963169;28;20046;-77
2023/08/29 01:04:05;;;;;;;6.05;4.10;;;12.40;99.90;;;11.25;100.00;100643.19;4980532;28;20134;-77
2023/08/29 01:06:32;;;;;;;8.00;4.13;;;12.30;99.90;;;11.26;100.00;100648.41;4961331;28;20102;-77
2023/08/29 01:08:59;;;;;;;6.22;4.88;;;12.40;99.90;;;11.28;100.00;100648.31;4962765;28;20031;-77
2023/08/29 01:11:45;;;;;;;2.85;2.00;;;12.40;99.90;;;11.24;100.00;100652.88;4963505;28;20038;-77
2023/08/29 01:14:50;;;;;;;2.65;2.20;;;12.30;99.90;;;11.19;100.00;100649.66;4962923;28;20026;-76
2023/08/29 01:17:23;;;;;;;6.72;3.30;;;12.30;99.90;;;11.18;100.00;100657.63;4984203;28;20038;-77
2023/08/29 01:19:52;;;;;;;5.38;2.40;;;12.30;99.90;;;11.15;100.00;100665.69;4959791;28;20053;-77
2023/08/29 01:22:36;;;;;;;3.72;1.80;;;12.30;99.90;;;11.09;100.00;100666.84;4963202;28;20026;-77
2023/08/29 01:25:30;;;;;;;2.88;1.88;;;12.20;99.90;;;11.05;99.79;100678.47;4978699;28;20105;-77
2023/08/29 01:27:56;;;;;;;3.40;2.47;;;12.20;99.90;;;11.02;99.02;100671.56;4969690;28;20043;-77
2023/08/29 01:30:23;;;;;;;11.00;4.60;;;12.10;99.90;;;11.03;99.31;100661.88;4949695;28;20146;-77
2023/08/29 01:32:49;;;;;;;5.65;3.78;;;12.10;99.90;;;11.03;100.00;100678.53;4970847;28;20032;-77
2023/08/29 01:35:15;;;;;;;4.55;2.60;;;12.10;99.90;;;11.04;100.00;100671.50;4960840;28;20039;-78
2023/08/29 01:37:41;;;;;;;7.65;3.08;;;12.10;99.90;;;11.04;100.00;100674.97;4980010;28;20041;-77
2023/08/29 01:40:08;;;;;;;5.80;2.92;;;12.10;99.90;;;11.06;100.00;100677.53;4964228;28;20511;-78
2023/08/29 01:42:36;;;;;;;7.53;2.60;;;12.10;99.90;;;11.01;100.00;100690.06;4961320;28;20027;-77
2023/08/29 01:45:03;;;;;;;3.58;1.40;;;12.00;99.90;;;10.87;99.96;100683.69;4950047;28;20681;-77
2023/08/29 01:47:29;;;;;;;2.83;2.58;;;12.00;99.90;;;10.80;98.61;100682.31;4942973;28;20066;-77
2023/08/29 01:49:55;;;;;;;4.05;1.60;;;11.90;99.90;;;10.69;97.40;100689.88;4963123;28;20054;-77
2023/08/29 01:52:21;;;;;;;1.88;1.60;;;11.80;99.90;;;10.62;96.61;100691.06;4966959;28;20407;-78
2023/08/29 01:54:46;;;;;;;365.15;7.75;;;11.80;99.90;;;10.58;96.83;100684.22;4966273;28;20022;-77
2023/08/29 01:57:17;;;;;;;298.35;8.60;;;11.70;99.90;;;10.51;97.65;100677.56;4966191;28;20044;-77
2023/08/29 01:59:44;;;;;;;91.10;5.15;;;11.60;99.90;;;10.44;97.84;100675.22;4966147;28;20457;-78
2023/08/29 02:02:10;;;;;;;380.73;10.75;;;11.60;99.90;;;10.37;98.29;100665.91;4951748;28;20033;-78
2023/08/29 02:04:36;;;;;;;4.30;3.83;;;11.60;99.90;;;10.31;98.42;100658.28;4984295;28;20109;-77
2023/08/29 02:07:02;;;;;;;5.78;3.20;;;11.50;99.90;;;10.32;98.29;100653.88;4969161;28;20069;-77
2023/08/29 02:09:27;;;;;;;3.30;3.00;;;11.50;99.90;;;10.33;98.51;100640.66;4965133;28;20113;-77
2023/08/29 02:11:53;;;;;;;6.82;4.20;;;11.50;99.90;;;10.38;98.65;100636.00;4983588;28;20069;-77
2023/08/29 02:14:19;;;;;;;7.82;3.55;;;11.50;99.90;;;10.43;99.58;100641.94;4964627;28;20121;-77
2023/08/29 02:16:45;;;;;;;3.83;3.00;;;11.50;99.90;;;10.46;99.36;100641.78;4967135;28;20113;-77
2023/08/29 02:19:10;;;;;;;11.00;5.28;;;11.60;99.90;;;10.46;100.00;100639.13;4965869;28;20049;-77
2023/08/29 02:21:36;;;;;;;22.38;10.23;;;11.60;99.90;;;10.49;100.00;100634.66;4965254;28;20169;-77
2023/08/29 02:24:05;;;;;;;20.73;11.38;;;11.60;99.90;;;10.53;100.00;100630.97;4963225;28;20058;-77
2023/08/29 02:26:31;;;;;;;16.70;12.13;;;10.80;99.90;;;10.61;100.00;100641.97;4965525;28;20023;-77
2023/08/29 02:28:56;;;;;;;19.75;10.77;;;11.80;99.90;;;10.70;100.00;100646.78;4984474;28;20117;-78
2023/08/29 02:31:22;;;;;;;14.20;10.63;;;11.80;99.90;;;10.79;100.00;100646.34;4964124;28;20113;-77
2023/08/29 02:33:48;;;;;;;19.95;13.43;;;11.90;99.90;;;10.88;100.00;100637.13;4966169;28;20026;-77
2023/08/29 02:36:14;;;;;;;24.40;13.77;;;12.00;99.90;;;10.97;100.00;100647.25;4965531;28;20042;-77
2023/08/29 02:38:40;;;;;;;22.60;14.52;;;12.10;99.90;;;11.11;100.00;100650.97;4984412;28;20034;-77
2023/08/29 02:41:06;;;;;;;26.27;16.83;;;12.20;99.90;;;11.22;100.00;100641.56;4983383;28;20113;-77
2023/08/29 02:43:32;;;;;;;27.15;16.77;;;12.30;99.90;;;11.35;100.00;100646.22;4965164;28;20042;-77
2023/08/29 02:45:58;;;;;;;23.05;14.43;;;12.40;99.90;;;11.42;100.00;100645.81;4979151;28;20082;-77
2023/08/29 02:48:25;;;;;;;25.55;15.48;;;12.50;99.90;;;11.48;100.00;100647.31;4966274;28;20034;-77
2023/08/29 02:50:51;;;;;;;28.52;16.38;;;12.50;99.90;;;11.50;100.00;100638.38;4966146;28;20019;-77
2023/08/29 02:53:18;;;;;;;27.50;17.33;;;12.60;99.90;;;11.55;100.00;100643.41;4965939;28;20096;-77
2023/08/29 02:55:44;;;;;;;17.05;10.90;;;12.60;99.90;;;11.59;100.00;100641.47;4951222;28;20058;-77
2023/08/29 02:58:10;;;;;;;14.23;10.45;;;12.60;99.90;;;11.62;100.00;100642.19;4965668;28;20045;-77
2023/08/29 03:00:35;;;;;;;24.67;12.77;;;12.70;99.90;;;11.63;100.00;100640.38;4964197;28;20408;-78
2023/08/29 03:03:04;;;;;;;23.00;13.93;;;12.70;99.90;;;11.63;100.00;100637.75;4965133;28;20030;-77
2023/08/29 03:05:30;;;;;;;30.67;13.02;;;12.60;99.90;;;11.56;100.00;100642.50;4964423;28;20121;-77
2023/08/29 03:07:57;;;;;;;16.60;10.93;;;12.60;99.90;;;11.52;100.00;100638.31;4952322;28;20058;-78
2023/08/29 03:10:24;;;;;;;9.90;7.70;;;12.60;99.90;;;11.52;100.00;100640.94;4966752;28;20053;-77
2023/08/29 03:12:52;;;;;;;12.75;8.38;;;12.60;99.90;;;11.55;100.00;100639.91;4964280;28;20613;-77
2023/08/29 03:15:18;;;;;;;11.95;7.38;;;12.60;99.90;;;11.54;100.00;100633.81;4965964;28;20038;-77
2023/08/29 03:17:44;;;;;;;12.45;8.82;;;12.60;99.90;;;11.54;100.00;100627.69;4980739;28;20113;-77
2023/08/29 03:20:11;;;;;;;19.15;10.30;;;12.60;99.90;;;11.49;100.00;100618.22;4962849;28;20045;-77
2023/08/29 03:22:38;;;;;;;56.58;10.55;;;12.60;99.90;;;11.44;100.00;100617.59;4988213;28;20034;-77
2023/08/29 03:25:05;;;;;;;12.32;7.45;;;12.50;99.90;;;11.41;100.00;100617.75;4964236;28;20038;-77
2023/08/29 03:27:31;;;;;;;14.77;9.98;;;12.50;99.90;;;11.35;100.00;100617.22;4964553;28;20050;-78
2023/08/29 03:29:58;;;;;;;16.45;8.95;;;12.40;99.90;;;11.31;100.00;100618.31;4962818;28;20026;-77
2023/08/29 03:32:23;;;;;;;20.15;11.23;;;12.40;99.90;;;11.28;100.00;100621.97;4946975;28;20544;-77
2023/08/29 03:34:58;;;;;;;10.07;7.78;;;12.30;99.90;;;11.26;100.00;100614.13;4964895;28;20097;-77
2023/08/29 03:37:24;;;;;;;12.43;7.95;;;12.40;99.90;;;11.27;100.00;100621.13;4966140;28;20026;-77
2023/08/29 03:39:49;;;;;;;10.40;7.60;;;12.30;99.90;;;11.28;100.00;100620.19;4965919;28;20066;-78
2023/08/29 03:42:15;;;;;;;11.85;8.32;;;12.30;99.90;;;11.31;100.00;100616.53;4962779;28;20050;-77
2023/08/29 03:44:41;;;;;;;16.48;11.77;;;12.40;99.90;;;11.33;100.00;100613.81;4981278;28;20062;-77
2023/08/29 03:47:07;;;;;;;23.73;14.98;;;12.40;99.90;;;11.36;100.00;100608.38;4964582;28;20117;-77
2023/08/29 03:49:32;;;;;;;24.00;15.85;;;12.40;99.90;;;11.39;100.00;100610.88;4952713;28;20113;-76
2023/08/29 03:51:58;;;;;;;29.83;17.33;;;12.50;99.90;;;11.44;100.00;100606.19;4965550;28;20058;-77
2023/08/29 03:54:24;;;;;;;26.58;16.40;;;12.50;99.90;;;11.49;100.00;100597.13;4963161;28;20192;-77
2023/08/29 03:56:50;;;;;;;32.88;17.42;;;12.60;99.90;;;11.58;100.00;100598.44;4960826;28;20177;-77
2023/08/29 03:59:15;;;;;;;33.83;18.70;;;12.60;99.90;;;11.65;100.00;100599.81;4960409;28;20080;-78
2023/08/29 04:01:41;;;;;;;29.92;18.80;;;12.70;99.90;;;11.72;100.00;100588.94;4962572;28;20109;-77
2023/08/29 04:04:07;;;;;;;33.78;17.98;;;12.80;99.90;;;11.76;100.00;100595.75;4963672;28;20035;-77
2023/08/29 04:06:35;;;;;;;27.20;16.65;;;12.80;99.90;;;11.73;100.00;100590.63;4963780;28;20121;-77
2023/08/29 04:09:03;;;;;;;27.83;17.25;;;12.80;99.90;;;11.74;100.00;100597.63;4964599;28;20392;-77
2023/08/29 04:11:29;;;;;;;35.70;19.05;;;12.80;99.90;;;11.80;100.00;100597.28;4963159;28;20031;-78
2023/08/29 04:13:55;;;;;;;34.08;18.83;;;12.80;99.90;;;11.82;100.00;100585.72;4963126;28;20041;-77
2023/08/29 04:16:20;;;;;;;38.90;19.90;;;12.90;99.90;;;11.83;100.00;100582.13;4965834;28;20070;-78
2023/08/29 04:18:46;;;;;;;40.20;19.85;;;12.90;99.90;;;11.86;100.00;100581.13;4963993;28;20054;-77
2023/08/29 04:21:12;;;;;;;35.67;18.15;;;12.90;99.90;;;11.92;100.00;100590.53;4955906;28;20066;-77
2023/08/29 04:23:38;;;;;;;35.40;18.73;;;13.00;99.90;;;12.03;100.00;100591.66;4980569;28;20078;-78
2023/08/29 04:26:03;;;;;;;35.95;17.85;;;13.10;99.90;;;12.11;100.00;100584.13;4965449;28;20045;-77
2023/08/29 04:28:30;;;;;;;23.73;13.32;;;13.10;99.90;;;12.19;100.00;100575.81;4963968;28;20038;-77
2023/08/29 04:31:05;;;;;;;22.00;12.73;;;13.20;99.90;;;12.25;100.00;100577.28;4962024;28;20457;-77
2023/08/29 04:33:31;;;;;;;18.08;10.48;;;13.20;99.90;;;12.34;100.00;100586.47;4965083;28;20261;-78
2023/08/29 04:35:57;;;;;;;26.02;13.98;;;13.30;99.90;;;12.41;100.00;100590.44;4963153;28;20573;-77
2023/08/29 04:38:23;;;;;;;37.17;16.42;;;13.40;99.90;;;12.49;100.00;100585.59;4965108;28;20620;-78
2023/08/29 04:40:49;;;;;;;59.85;22.67;;;13.40;99.90;;;12.49;100.00;100578.50;4946139;28;20031;-77
2023/08/29 04:43:14;;;;;;;44.67;20.95;;;13.50;99.90;;;12.60;100.00;100588.47;4949589;28;20054;-77
2023/08/29 04:45:43;;;;;;;26.13;14.95;;;13.50;99.90;;;12.77;100.00;100586.66;4963683;28;20046;-76
2023/08/29 04:48:09;;;;;;;50.03;19.75;;;13.60;99.90;;;12.77;100.00;100584.84;4962772;28;20030;-77
2023/08/29 04:50:35;;;;;;;37.75;18.38;;;13.60;99.90;;;12.73;100.00;100570.13;4980475;28;20085;-77
2023/08/29 04:53:01;;;;;;;29.65;17.08;;;13.70;99.90;;;12.81;100.00;100564.41;4965361;28;20081;-78
2023/08/29 04:55:27;;;;;;;23.40;13.57;;;13.70;99.90;;;12.88;100.00;100574.50;4963686;28;20041;-77
2023/08/29 04:57:54;;;;;;;43.60;21.58;;;13.80;99.90;;;12.95;100.00;100574.16;4962722;28;20109;-77
2023/08/29 05:00:20;;;;;;;50.38;21.13;;;13.90;99.90;;;13.03;100.00;100569.28;4964400;28;20038;-77
2023/08/29 05:02:46;;;;;;;75.68;26.08;;;13.90;99.90;;;13.03;100.00;100566.63;4963275;28;20448;-77
2023/08/29 05:05:11;;;;;;;40.15;19.95;;;14.00;99.90;;;13.11;100.00;100567.03;4962549;28;20085;-77
2023/08/29 05:07:37;;;;;;;38.22;18.70;;;14.00;99.90;;;13.17;100.00;100558.69;4966075;28;20440;-77
2023/08/29 05:10:04;;;;;;;25.23;15.43;;;14.10;99.90;;;13.25;100.00;100561.75;4963201;28;20802;-77
2023/08/29 05:12:29;;;;;;;48.33;21.40;;;14.20;99.90;;;13.36;100.00;100555.00;4960639;28;20026;-77
2023/08/29 05:14:56;;;;;;;33.42;19.75;;;14.30;99.90;;;13.45;100.00;100552.63;4983285;28;20157;-77
2023/08/29 05:17:21;;;;;;;30.25;18.13;;;14.40;99.90;;;13.59;100.00;100567.66;4980948;28;20031;-77
2023/08/29 05:19:47;;;;;;;33.38;19.27;;;14.50;99.90;;;13.72;100.00;100558.00;4963054;28;20054;-77
2023/08/29 05:22:13;;;;;;;28.38;16.95;;;14.60;99.90;;;13.86;100.00;100566.88;4949418;28;20150;-77
2023/08/29 05:24:39;;;;;;;36.70;20.42;;;14.70;99.90;;;13.96;100.00;100557.41;4969615;28;20069;-77
2023/08/29 05:27:05;;;;;;;38.08;21.67;;;14.80;99.90;;;14.08;100.00;100564.59;4977439;28;20035;-77
2023/08/29 05:29:31;;;;;;;33.83;20.50;;;14.90;99.90;;;14.23;100.00;100567.19;4977662;28;20031;-77
2023/08/29 05:31:56;;;;;;;38.22;22.00;;;15.10;99.90;;;14.34;100.00;100559.38;4967716;28;20154;-77
2023/08/29 05:34:22;;;;;;;30.10;18.88;;;15.20;99.90;;;14.44;100.00;100562.31;4965994;28;20129;-78
2023/08/29 05:36:50;;;;;;;36.45;21.02;;;15.30;99.90;;;14.52;100.00;100560.84;4967867;28;20039;-77
2023/08/29 05:39:16;;;;;;;35.03;20.05;;;15.40;99.90;;;14.63;100.00;100560.16;4967125;28;20030;-78
2023/08/29 05:41:42;;;;;;;36.00;20.80;;;15.50;99.90;;;14.74;100.00;100570.91;4952047;28;20034;-77
2023/08/29 05:44:07;;;;;;;33.67;19.85;;;15.60;99.90;;;14.82;100.00;100562.44;4967143;28;20042;-77
2023/08/29 05:46:33;;;;;;;27.60;17.52;;;15.70;99.90;;;14.91;100.00;100568.94;4985845;28;20030;-78
2023/08/29 05:48:59;;;;;;;27.50;18.35;;;15.80;99.90;;;14.98;100.00;100570.22;4963173;28;20117;-77
2023/08/29 05:51:26;;;;;;;28.92;16.20;;;15.80;99.90;;;15.07;100.00;100563.44;4967695;28;20061;-77
2023/08/29 05:53:53;;;;;;;28.98;16.00;;;15.90;99.90;;;15.13;100.00;100568.31;4980953;28;20047;-77
2023/08/29 05:56:19;;;;;;;19.05;13.68;;;16.00;99.90;;;15.16;100.00;100560.16;4967937;28;20452;-78
2023/08/29 05:58:46;;;;;;;18.70;13.15;;;16.00;99.90;;;15.26;100.00;100552.44;4970286;28;20035;-77
2023/08/29 06:01:12;;;;;;;19.48;12.93;;;16.10;99.90;;;15.29;100.00;100547.78;4966479;28;20030;-77
2023/08/29 06:03:37;;;;;;;17.08;10.98;;;16.10;99.90;;;15.29;100.00;100547.78;4968280;28;20038;-77
2023/08/29 06:06:03;;;;;;;17.77;10.27;;;16.20;99.90;;;15.34;100.00;100532.38;4965332;28;20042;-78
2023/08/29 06:08:35;;;;;;;15.10;9.25;;;16.20;99.90;;;15.34;100.00;100527.06;4967188;28;20041;-77
2023/08/29 06:11:03;;;;;;;15.13;9.52;;;16.20;99.90;;;15.30;100.00;100528.22;4959103;28;20111;-78
2023/08/29 06:13:29;;;;;;;12.32;9.63;;;16.20;99.90;;;15.33;100.00;100530.69;4966693;28;20053;-78
2023/08/29 06:15:55;;;;;;;13.20;8.93;;;16.30;99.90;;;15.41;100.00;100537.25;4965334;28;20031;-77
2023/08/29 06:18:21;;;;;;;10.32;8.05;;;16.30;99.90;;;15.39;100.00;100534.69;4968500;28;20151;-77
2023/08/29 06:20:47;;;;;;;15.73;9.00;;;16.30;99.90;;;15.46;100.00;100537.75;4950877;28;20066;-77
2023/08/29 06:23:13;;;;;;;10.23;7.32;;;16.40;99.90;;;15.55;100.00;100547.72;4966814;28;20573;-77
2023/08/29 06:25:39;;;;;;;12.45;8.13;;;16.40;99.90;;;15.64;100.00;100546.25;4966526;28;20038;-77
2023/08/29 06:28:05;;;;;;;8.48;6.82;;;16.40;99.90;;;15.62;100.00;100538.41;4967416;28;20039;-77
2023/08/29 06:30:31;;;;;;;9.85;6.88;;;16.50;99.90;;;15.69;100.00;100542.31;4983449;28;20023;-75
2023/08/29 06:32:57;;;;;;;10.50;6.30;;;16.60;99.90;;;15.81;100.00;100550.38;4963958;28;20397;-76
2023/08/29 06:35:25;;;;;;;11.68;6.18;;;16.70;99.90;;;15.90;100.00;100557.72;4962818;28;20058;-76
2023/08/29 06:37:51;;;;;;;10.10;6.00;;;16.70;99.90;;;15.94;100.00;100559.19;4950070;28;20053;-76
2023/08/29 06:40:17;;;;;;;8.32;4.88;;;16.80;99.90;;;16.02;100.00;100556.81;4963646;28;20030;-76
2023/08/29 06:42:42;;;;;;;8.18;4.40;;;16.90;99.90;;;16.04;100.00;100562.84;4963389;28;20030;-76
2023/08/29 06:45:09;;;;;;;7.03;4.32;;;17.00;99.90;;;16.16;100.00;100559.31;4963838;28;20457;-76
2023/08/29 06:47:35;;;;;;;7.72;3.80;;;17.10;99.90;;;16.29;100.00;100561.09;4963052;28;20042;-76
2023/08/29 06:50:00;;;;;;;11.15;3.92;;;17.20;99.90;;;16.42;100.00;100569.84;4961486;28;20532;-76
2023/08/29 06:52:27;;;;;;;6.10;4.05;;;17.20;99.90;;;16.46;100.00;100568.66;4965390;28;20495;-76
2023/08/29 06:54:53;;;;;;;5.00;3.58;;;17.40;99.90;;;16.62;100.00;100573.69;4954875;28;20027;-76
2023/08/29 06:57:18;;;;;;;7.65;3.40;;;17.40;99.90;;;16.72;100.00;100571.22;4965245;28;20350;-76
2023/08/29 06:59:44;;;;;;;6.97;3.38;;;17.60;99.90;;;16.93;100.00;100568.75;4964159;28;20030;-76
2023/08/29 07:02:10;;;;;;;6.53;3.45;;;17.70;99.90;;;17.09;100.00;100574.63;4964926;28;20033;-76
2023/08/29 07:04:36;;;;;;;4.65;3.00;;;17.80;99.90;;;17.23;100.00;100576.19;4964083;28;20403;-76
2023/08/29 07:07:02;;;;;;;6.57;2.95;;;18.00;99.90;;;17.45;100.00;100582.53;4983968;28;20046;-76
2023/08/29 07:09:30;;;;;;;3.75;2.78;;;18.10;99.90;;;17.49;100.00;100578.66;4981199;28;20030;-76
2023/08/29 07:11:57;;;;;;;7.68;2.90;;;18.20;99.90;;;17.59;100.00;100571.66;4963743;28;20535;-77
2023/08/29 07:14:23;;;;;;;5.90;2.30;;;18.30;99.90;;;17.67;100.00;100577.25;4964583;28;20117;-76
2023/08/29 07:16:48;;;;;;;4.25;2.20;;;18.40;99.90;;;17.46;99.00;100581.59;4967663;28;20496;-76
2023/08/29 07:19:14;;;;;;;8.82;2.00;;;18.40;99.90;;;17.67;99.03;100593.22;4962494;28;20035;-76
2023/08/29 07:21:40;;;;;;;4.00;1.83;;;18.50;99.90;;;17.72;95.85;100604.34;4982394;28;20050;-77
2023/08/29 07:24:06;;;;;;;2.22;1.60;;;18.50;99.90;;;17.72;94.62;100596.34;4962235;28;20042;-76
2023/08/29 07:26:32;;;;;;;3.92;1.70;;;18.60;99.90;;;17.95;94.42;100604.38;4964578;28;20022;-76
2023/08/29 07:28:58;;;;;;;10.30;2.15;;;18.80;99.90;;;18.16;94.13;100604.47;4964547;28;20026;-77
2023/08/29 07:31:23;;;;;;;8.10;1.90;;;18.80;99.90;;;18.11;91.45;100604.00;4964522;28;20022;-76
2023/08/29 07:33:49;;;;;;;5.53;1.60;;;19.00;99.90;;;18.35;92.21;100611.81;4963791;28;20073;-76
2023/08/29 07:36:15;;;;;;;6.10;1.60;;;19.10;99.90;;;18.42;90.72;100613.00;4967112;28;20026;-76
2023/08/29 07:38:42;;;;;;;5.88;1.30;;;19.20;99.90;;;18.64;89.46;100618.31;4964445;28;20106;-76
2023/08/29 07:41:07;;;;;;;3.30;1.23;;;19.20;99.90;;;18.46;85.08;100619.78;4963665;28;20050;-78
2023/08/29 07:43:33;;;;;;;3.08;1.23;;;19.30;99.90;;;18.58;84.71;100613.47;4963641;28;20038;-76
2023/08/29 07:45:59;;;;;;;7.72;1.45;;;19.40;99.90;;;18.65;84.82;100625.31;4982738;28;20609;-77
2023/08/29 07:48:25;;;;;;;4.15;1.35;;;19.40;99.90;;;18.69;83.80;100635.75;4964721;28;20026;-76
2023/08/29 07:50:51;;;;;;;2.17;1.20;;;19.50;99.90;;;18.76;83.35;100636.91;4962722;28;20030;-77
2023/08/29 07:53:18;;;;;;;3.97;1.10;;;19.50;99.90;;;18.81;81.87;100634.75;4965105;28;20035;-76
2023/08/29 07:55:44;;;;;;;4.60;1.10;;;19.50;99.90;;;18.64;80.27;100633.47;4965199;28;20560;-77
2023/08/29 07:58:10;;;;;;;2.13;1.00;;;19.50;99.90;;;18.79;80.18;100629.56;4963747;28;20134;-76
2023/08/29 08:00:36;;;;;;;4.72;1.10;;;19.60;99.90;;;18.84;79.73;100629.19;4963123;28;20697;-76
2023/08/29 08:03:03;;;;;;;4.95;1.00;;;19.50;99.90;;;18.69;78.19;100625.91;4963530;28;20026;-76
2023/08/29 08:05:30;;;;;;;6.00;1.10;;;19.40;99.90;;;18.45;78.39;100629.63;4963815;28;20022;-76
2023/08/29 08:07:56;;;;;;;5.18;1.15;;;19.40;99.90;;;18.49;78.45;100638.22;4952171;28;20590;-76
2023/08/29 08:10:22;;;;;;;1.20;0.80;;;19.30;99.90;;;18.35;78.25;100623.31;4961604;28;20070;-76
2023/08/29 08:12:49;;;;;;;3.17;1.20;;;19.20;99.90;;;18.34;78.74;100626.97;4964417;28;20133;-76
2023/08/29 08:15:20;;;;;;;3.22;1.17;;;19.30;99.90;;;18.32;77.96;100631.59;4983929;28;20806;-76
2023/08/29 08:17:46;;;;;;;3.33;1.05;;;19.30;99.90;;;18.40;77.86;100636.28;4961329;28;20031;-75
2023/08/29 08:20:15;;;;;;;3.25;1.00;;;19.20;99.90;;;18.35;77.35;100647.31;4964028;28;20038;-76
2023/08/29 08:22:44;;;;;;;3.70;0.88;;;19.30;99.90;;;18.38;77.30;100649.75;4962586;28;20030;-76
2023/08/29 08:25:10;;;;;;;2.03;0.85;;;19.20;99.90;;;18.28;77.65;100646.13;4960722;28;20377;-77
2023/08/29 08:27:45;;;;;;;2.65;1.00;;;19.20;99.90;;;18.36;78.31;100661.53;4961650;28;20049;-76
2023/08/29 08:30:14;;;;;;;2.20;0.93;;;19.20;99.90;;;18.31;77.03;100655.69;4963505;28;20568;-76
2023/08/29 08:32:43;;;;;;;2.50;0.95;;;19.20;99.90;;;18.35;77.30;100655.31;4947058;28;20053;-76
2023/08/29 08:35:12;;;;;;;2.95;0.80;;;19.10;99.90;;;18.15;77.07;100656.91;4963360;28;20034;-76
2023/08/29 08:37:41;;;;;;;5.35;0.93;;;19.10;99.90;;;18.20;77.60;100660.06;4980538;28;20587;-77
2023/08/29 08:40:13;;;;;;;6.10;0.90;;;19.10;99.90;;;18.31;77.91;100667.19;4977827;28;20053;-77
2023/08/29 08:42:39;;;;;;;2.67;1.00;;;19.20;99.90;;;18.36;77.87;100662.34;4962731;28;20030;-76
2023/08/29 08:45:07;;;;;;;2.65;1.10;;;19.20;99.90;;;18.50;77.31;100663.06;4980329;28;20113;-76
2023/08/29 08:47:37;;;;;;;3.47;0.82;;;19.20;99.90;;;18.40;75.98;100652.28;4959534;28;20130;-76
2023/08/29 08:50:08;;;;;;;3.22;1.00;;;19.20;99.90;;;18.45;76.24;100650.09;4958684;28;20732;-76
2023/08/29 08:52:36;;;;;;;12.32;1.30;;;19.30;99.90;;;18.52;76.13;100645.97;4959922;28;20033;-76
2023/08/29 08:55:03;;;;;;;4.28;0.98;;;19.30;99.90;;;18.61;76.04;100645.19;4963922;28;20038;-75
2023/08/29 08:57:30;;;;;;;3.15;0.88;;;19.40;99.90;;;18.72;75.87;100648.81;4979717;28;20760;-76
2023/08/29 09:00:02;;;;;;;3.30;0.90;;;19.50;99.90;;;18.91;75.47;100637.50;4962859;28;20048;-76
2023/08/29 09:02:30;;;;;;;3.67;1.00;;;19.60;99.90;;;19.13;75.74;100631.22;4978252;28;20070;-76
2023/08/29 09:04:59;;;;;;;4.13;0.95;;;19.70;99.90;;;19.26;74.33;100632.75;4962085;28;20071;-75
2023/08/29 09:07:28;;;;;;;2.33;1.13;;;19.90;99.90;;;19.31;73.94;100637.69;4962664;28;20034;-76
2023/08/29 09:10:19;;;;;;;3.90;0.90;;;20.00;99.90;;;19.43;73.06;100638.44;4960366;28;20086;-75
2023/08/29 09:12:55;;;;;;;2.83;0.85;;;20.00;99.90;;;19.38;72.45;100632.66;4945102;28;20522;-76
2023/08/29 09:15:22;;;;;;;4.05;1.00;;;20.10;99.90;;;19.38;73.08;100636.19;4959018;28;20046;-76
2023/08/29 09:17:53;;;;;;;2.25;0.82;;;20.10;99.90;;;19.34;72.50;100641.91;4961165;28;20034;-77
2023/08/29 09:20:21;;;;;;;1.52;0.80;;;20.10;99.90;;;19.36;72.08;100638.13;4951712;28;20043;-76
2023/08/29 09:22:51;;;;;;;7.95;0.77;;;20.20;99.90;;;19.48;72.66;100649.56;4963363;28;20050;-75
2023/08/29 09:25:20;;;;;;;1.95;1.05;;;20.20;99.90;;;19.47;71.77;100651.41;4958659;28;20057;-76
2023/08/29 09:27:49;;;;;;;5.38;1.10;;;20.10;99.90;;;19.25;70.44;100655.06;4948999;28;20038;-76
2023/08/29 09:30:17;;;;;;;2.30;0.95;;;20.00;99.90;;;19.01;70.58;100646.44;4979283;28;20034;-76
2023/08/29 09:32:53;;;;;;;3.92;0.90;;;19.90;99.90;;;19.06;70.97;100650.41;4963147;28;20109;-76
2023/08/29 09:35:22;;;;;;;11.68;0.73;;;19.80;99.90;;;18.94;71.26;100651.44;4961554;28;20037;-76
2023/08/29 09:38:01;;;;;;;1.55;0.88;;;19.80;99.90;;;19.00;71.11;100653.59;4952315;28;20519;-76
2023/08/29 09:40:26;;;;;;;1.52;0.73;;;19.80;99.90;;;19.02;71.23;100648.97;4962141;28;20129;-75
2023/08/29 09:43:11;;;;;;;1.60;0.60;;;19.80;99.90;;;19.00;70.81;100642.91;4960606;28;20090;-74
2023/08/29 09:45:42;;;;;;;2.88;0.90;;;19.80;99.90;;;19.07;70.88;100651.28;4984809;28;20042;-76
2023/08/29 09:48:09;;;;;;;5.40;0.90;;;19.80;99.90;;;19.02;70.50;100648.97;4946605;28;20043;-75
2023/08/29 09:50:36;;;;;;;4.22;1.08;;;19.90;99.90;;;19.22;71.13;100652.66;4960907;28;20034;-76
2023/08/29 09:53:07;;;;;;;5.28;1.05;;;20.00;99.90;;;19.32;70.77;100650.03;4962468;28;20142;-75
2023/08/29 09:55:59;;;;;;;1.77;0.68;;;20.10;99.90;;;19.37;70.44;100642.50;4962719;28;20050;-75
2023/08/29 09:58:32;;;;;;;3.20;0.80;;;20.10;99.90;;;19.43;70.28;100646.47;4963501;28;20081;-75
2023/08/29 10:01:04;;;;;;;2.53;0.93;;;20.10;99.90;;;19.38;70.19;100646.03;4961161;28;20062;-75
2023/08/29 10:03:32;;;;;;;3.30;0.98;;;20.20;99.90;;;19.49;70.71;100635.25;4961514;28;20452;-75